createdAt,value
2018-10-12T07:25:09.404Z,4.33
2018-10-12T07:27:39.515Z,3.97
2018-10-12T07:30:08.560Z,3.83
2018-10-12T07:32:37.604Z,3.83
2018-10-12T07:35:06.683Z,4.27
2018-10-12T07:37:36.274Z,4.77
2018-10-12T07:40:05.990Z,3.73
2018-10-12T07:42:36.096Z,3.30
2018-10-12T07:45:06.355Z,4.10
2018-10-12T07:47:35.378Z,3.43
2018-10-12T07:50:04.522Z,4.77
2018-10-12T07:52:33.641Z,3.40
2018-10-12T07:55:02.650Z,3.27
2018-10-12T07:57:32.758Z,3.27
2018-10-12T08:00:02.553Z,3.30
2018-10-12T08:02:32.607Z,3.70
2018-10-12T08:05:02.707Z,3.70
2018-10-12T08:07:31.790Z,3.77
2018-10-12T08:10:01.452Z,2.90
2018-10-12T08:12:30.526Z,3.40
2018-10-12T08:14:59.742Z,2.87
2018-10-12T08:17:29.683Z,3.50
2018-10-12T08:19:59.896Z,3.37
2018-10-12T08:22:30.116Z,2.93
2018-10-12T08:25:00.013Z,3.13
2018-10-12T08:27:29.792Z,3.80
2018-10-12T08:30:00.242Z,2.77
2018-10-12T08:32:30.919Z,2.77
2018-10-12T08:35:00.628Z,2.97
2018-10-12T08:37:30.363Z,2.70
2018-10-12T08:40:00.453Z,2.77
2018-10-12T08:42:30.567Z,2.93
2018-10-12T08:44:59.742Z,3.33
2018-10-12T08:47:29.079Z,2.30
2018-10-12T08:49:58.319Z,2.63
2018-10-12T08:52:27.778Z,2.40
2018-10-12T08:54:57.662Z,2.50
2018-10-12T08:57:27.188Z,2.90
2018-10-12T08:59:56.561Z,2.30
2018-10-12T09:02:25.878Z,2.37
2018-10-12T09:04:55.211Z,2.97
2018-10-12T09:07:24.519Z,2.70
2018-10-12T09:09:53.699Z,2.30
2018-10-12T09:12:22.976Z,2.80
2018-10-12T09:14:53.075Z,2.60
2018-10-12T09:17:23.332Z,2.33
2018-10-12T09:19:53.085Z,2.83
2018-10-12T09:22:23.160Z,2.80
2018-10-12T09:24:52.827Z,2.27
2018-10-12T09:27:22.168Z,2.80
2018-10-12T09:29:51.799Z,2.50
2018-10-12T09:32:21.939Z,2.63
2018-10-12T09:34:51.690Z,2.50
2018-10-12T09:37:21.272Z,2.70
2018-10-12T09:39:51.189Z,2.47
2018-10-12T09:42:25.860Z,2.33
2018-10-12T09:44:55.206Z,2.37
2018-10-12T09:47:24.223Z,2.23
2018-10-12T09:49:53.372Z,2.70
2018-10-12T09:52:22.464Z,2.23
2018-10-12T09:54:52.365Z,2.40
2018-10-12T09:57:26.352Z,2.63
2018-10-12T09:59:56.166Z,2.47
2018-10-12T10:02:30.648Z,1.80
2018-10-12T10:05:04.957Z,2.13
2018-10-12T10:07:34.634Z,1.70
2018-10-12T10:23:03.181Z,1.93
2018-10-12T10:25:32.240Z,2.50
2018-10-12T10:28:01.308Z,1.63
2018-10-12T10:30:30.459Z,2.07
2018-10-12T10:32:59.491Z,1.90
2018-10-12T10:35:28.578Z,2.10
2018-10-12T10:37:57.762Z,2.00
2018-10-12T10:40:26.822Z,2.07
2018-10-12T10:42:56.121Z,2.00
2018-10-12T10:45:25.832Z,1.97
2018-10-12T10:47:55.542Z,1.70
2018-10-12T10:50:25.033Z,2.10
2018-10-12T10:52:54.440Z,1.70
2018-10-12T10:55:23.783Z,2.20
2018-10-12T10:57:52.834Z,2.10
2018-10-12T11:00:21.998Z,2.03
2018-10-12T11:02:51.078Z,2.00
2018-10-12T11:05:20.204Z,2.00
2018-10-12T11:07:49.329Z,2.30
2018-10-12T11:10:18.551Z,2.23
2018-10-12T11:12:48.199Z,2.63
2018-10-12T11:15:17.805Z,2.07
2018-10-12T11:17:47.380Z,1.90
2018-10-12T11:20:16.902Z,2.20
2018-10-12T11:22:46.727Z,2.47
2018-10-12T11:25:15.883Z,2.10
2018-10-12T11:27:44.960Z,2.30
2018-10-12T11:30:14.049Z,2.50
2018-10-12T11:32:43.770Z,2.23
2018-10-12T11:35:12.847Z,2.00
2018-10-12T11:37:42.001Z,2.30
2018-10-12T11:40:11.609Z,2.00
2018-10-12T11:42:51.945Z,2.10
2018-10-12T11:45:21.085Z,2.07
2018-10-12T11:47:50.237Z,1.70
2018-10-12T11:50:19.345Z,2.37
2018-10-12T11:52:48.720Z,1.90
2018-10-12T11:55:18.540Z,2.20
2018-10-12T11:57:47.901Z,2.10
2018-10-12T12:00:17.508Z,2.23
2018-10-12T12:02:47.608Z,1.87
2018-10-12T12:05:16.723Z,2.40
2018-10-12T12:07:45.792Z,2.13
2018-10-12T12:10:14.887Z,2.00
2018-10-12T12:12:43.968Z,1.67
2018-10-12T12:15:13.049Z,1.90
2018-10-12T12:17:42.320Z,2.10
2018-10-12T12:20:11.685Z,1.83
2018-10-12T12:22:41.293Z,1.90
2018-10-12T12:25:10.946Z,1.80
2018-10-12T12:27:41.253Z,2.00
2018-10-12T12:30:10.781Z,2.40
2018-10-12T12:32:41.053Z,1.80
2018-10-12T12:35:11.034Z,1.80
2018-10-12T12:37:40.213Z,2.23
2018-10-12T12:40:10.811Z,1.67
2018-10-12T12:42:41.077Z,1.80
2018-10-12T12:45:11.434Z,2.00
2018-10-12T12:47:40.756Z,1.90
2018-10-12T12:50:10.414Z,1.60
2018-10-12T12:52:39.598Z,1.83
2018-10-12T12:55:09.011Z,2.03
2018-10-12T12:57:39.786Z,1.80
2018-10-12T13:00:09.646Z,1.70
2018-10-12T13:02:39.107Z,1.93
2018-10-12T13:05:08.522Z,1.80
2018-10-12T13:07:37.738Z,1.50
2018-10-12T13:10:06.945Z,1.60
2018-10-12T13:12:36.228Z,1.80
2018-10-12T13:15:06.112Z,1.80
2018-10-12T13:17:35.969Z,2.07
2018-10-12T13:20:05.648Z,1.70
2018-10-12T13:22:35.379Z,1.67
2018-10-12T13:25:05.252Z,2.03
2018-10-12T13:27:34.600Z,1.63
2018-10-12T13:30:03.975Z,1.57
2018-10-12T13:32:33.240Z,2.00
2018-10-12T13:35:02.450Z,1.80
2018-10-12T13:37:31.823Z,2.10
2018-10-12T13:40:02.769Z,2.30
2018-10-12T13:42:32.722Z,1.97
2018-10-12T13:45:02.108Z,2.33
2018-10-12T13:47:31.260Z,2.07
2018-10-12T13:50:00.458Z,1.80
2018-10-12T13:52:29.483Z,1.90
2018-10-12T13:54:58.691Z,2.00
2018-10-12T13:57:27.726Z,2.13
2018-10-12T13:59:56.884Z,2.07
2018-10-12T14:02:26.017Z,2.47
2018-10-12T14:04:55.163Z,1.87
2018-10-12T14:07:24.595Z,2.10
2018-10-12T14:09:54.106Z,2.20
2018-10-12T14:12:24.421Z,2.30
2018-10-12T14:14:54.047Z,2.10
2018-10-12T14:17:23.448Z,1.87
2018-10-12T14:19:52.705Z,2.30
2018-10-12T14:22:21.736Z,2.40
2018-10-12T14:24:50.857Z,1.97
2018-10-12T14:27:19.979Z,2.30
2018-10-12T14:29:49.023Z,2.90
2018-10-12T14:32:18.123Z,1.83
2018-10-12T14:34:47.242Z,2.40
2018-10-12T14:37:16.575Z,2.13
2018-10-12T14:39:45.912Z,2.50
2018-10-12T14:42:15.560Z,1.93
2018-10-12T14:44:45.234Z,2.60
2018-10-12T14:47:14.667Z,3.60
2018-10-12T14:49:43.947Z,2.40
2018-10-12T14:52:13.098Z,2.10
2018-10-12T14:54:42.173Z,1.97
2018-10-12T14:57:16.468Z,2.57
2018-10-12T14:59:45.955Z,2.30
2018-10-12T15:02:15.053Z,2.20
2018-10-12T15:04:44.506Z,2.13
2018-10-12T15:07:13.552Z,2.53
2018-10-12T15:09:42.655Z,2.20
2018-10-12T15:12:11.971Z,2.20
2018-10-12T15:14:52.158Z,2.37
2018-10-12T15:17:21.300Z,2.40
2018-10-12T15:19:50.386Z,2.63
2018-10-12T15:22:19.456Z,2.47
2018-10-12T15:24:48.475Z,1.93
2018-10-12T15:27:17.560Z,2.47
2018-10-12T15:29:46.695Z,2.43
2018-10-12T15:32:15.884Z,2.30
2018-10-12T15:34:45.411Z,2.60
2018-10-12T15:37:15.239Z,2.50
2018-10-12T15:39:45.034Z,2.70
2018-10-12T15:42:14.381Z,3.27
2018-10-12T15:44:43.602Z,3.33
2018-10-12T15:47:12.638Z,2.60
2018-10-12T15:49:41.763Z,2.93
2018-10-12T15:52:10.923Z,3.00
2018-10-12T15:54:39.975Z,2.67
2018-10-12T15:57:09.152Z,2.30
2018-10-12T15:59:38.230Z,2.97
2018-10-12T16:02:07.301Z,2.53
2018-10-12T16:04:36.770Z,2.30
2018-10-12T16:07:06.641Z,4.20
2018-10-12T16:09:36.450Z,4.40
2018-10-12T16:12:06.078Z,3.77
2018-10-12T16:14:35.237Z,3.30
2018-10-12T16:17:04.231Z,2.53
2018-10-12T16:19:33.343Z,2.60
2018-10-12T16:22:02.411Z,2.60
2018-10-12T16:24:31.481Z,2.53
2018-10-12T16:27:00.679Z,2.43
2018-10-12T16:29:29.711Z,2.57
2018-10-12T16:31:59.253Z,3.37
2018-10-12T16:34:28.696Z,6.50
2018-10-12T16:36:58.321Z,4.80
2018-10-12T16:39:28.060Z,3.40
2018-10-12T16:41:57.785Z,3.20
2018-10-12T16:44:26.914Z,2.90
2018-10-12T16:46:56.024Z,4.73
2018-10-12T16:49:25.165Z,4.37
2018-10-12T16:51:54.228Z,4.43
2018-10-12T16:54:23.318Z,3.00
2018-10-12T16:56:52.400Z,2.93
2018-10-12T16:59:21.538Z,3.40
2018-10-12T17:01:50.674Z,3.10
2018-10-12T17:04:20.134Z,2.67
2018-10-12T17:06:49.522Z,2.57
2018-10-12T17:09:18.926Z,2.63
2018-10-12T17:11:48.367Z,2.73
2018-10-12T17:14:18.082Z,2.73
2018-10-12T17:16:47.797Z,2.97
2018-10-12T17:19:16.887Z,2.50
2018-10-12T17:21:45.918Z,2.87
2018-10-12T17:24:15.099Z,3.03
2018-10-12T17:26:44.196Z,3.67
2018-10-12T17:29:13.328Z,3.13
2018-10-12T17:31:42.378Z,3.00
2018-10-12T17:34:11.463Z,3.00
2018-10-12T17:36:40.570Z,2.80
2018-10-12T17:39:11.983Z,3.30
2018-10-12T17:41:41.630Z,2.80
2018-10-12T17:44:11.420Z,2.87
2018-10-12T17:46:40.525Z,3.13
2018-10-12T17:49:09.695Z,2.87
2018-10-12T17:51:39.000Z,3.47
2018-10-12T17:54:08.075Z,3.27
2018-10-12T17:56:37.149Z,3.27
2018-10-12T17:59:06.424Z,4.20
2018-10-12T18:01:35.689Z,3.80
2018-10-12T18:04:04.908Z,3.83
2018-10-12T18:06:34.661Z,4.00
2018-10-12T18:09:04.304Z,3.67
2018-10-12T18:11:33.909Z,3.57
2018-10-12T18:14:03.748Z,3.80
2018-10-12T18:16:32.852Z,3.80
2018-10-12T18:19:01.896Z,3.80
2018-10-12T18:21:30.955Z,4.60
2018-10-12T18:23:59.999Z,3.90
2018-10-12T18:26:29.559Z,3.83
2018-10-12T18:28:58.593Z,4.20
2018-10-12T18:31:27.660Z,3.60
2018-10-12T18:33:56.795Z,4.10
2018-10-12T18:36:26.321Z,3.70
2018-10-12T18:38:55.832Z,4.00
2018-10-12T18:41:25.304Z,3.80
2018-10-12T22:19:38.223Z,3.63
